sensor_id;sensor_type;location;lat;lon;timestamp;temperature;humidity
24420;DHT22;12599;52.426;13.330;2022-10-16T00:01:14;14.50;99.90
24420;DHT22;12599;52.426;13.330;2022-10-16T00:03:41;14.50;99.90
24420;DHT22;12599;52.426;13.330;2022-10-16T00:06:08;14.60;99.90
24420;DHT22;12599;52.426;13.330;2022-10-16T00:08:34;14.60;99.90
24420;DHT22;12599;52.426;13.330;2022-10-16T00:11:02;14.60;99.90
24420;DHT22;12599;52.426;13.330;2022-10-16T00:13:30;14.70;99.90
24420;DHT22;12599;52.426;13.330;2022-10-16T00:15:56;14.70;99.90
24420;DHT22;12599;52.426;13.330;2022-10-16T00:18:23;14.80;99.90
24420;DHT22;12599;52.426;13.330;2022-10-16T00:20:48;14.90;99.90
24420;DHT22;12599;52.426;13.330;2022-10-16T00:23:14;14.90;99.90
24420;DHT22;12599;52.426;13.330;2022-10-16T00:25:39;14.90;99.90
24420;DHT22;12599;52.426;13.330;2022-10-16T00:28:05;15.20;99.90
24420;DHT22;12599;52.426;13.330;2022-10-16T00:30:30;15.00;99.90
24420;DHT22;12599;52.426;13.330;2022-10-16T00:32:56;15.00;99.90
24420;DHT22;12599;52.426;13.330;2022-10-16T00:35:22;15.10;99.90
24420;DHT22;12599;52.426;13.330;2022-10-16T00:37:47;15.70;99.90
24420;DHT22;12599;52.426;13.330;2022-10-16T00:40:13;16.80;99.90
24420;DHT22;12599;52.426;13.330;2022-10-16T00:42:39;15.20;99.90
24420;DHT22;12599;52.426;13.330;2022-10-16T00:45:05;15.30;99.90
24420;DHT22;12599;52.426;13.330;2022-10-16T00:47:34;15.30;99.90
24420;DHT22;12599;52.426;13.330;2022-10-16T00:50:08;15.30;99.90
24420;DHT22;12599;52.426;13.330;2022-10-16T00:52:40;15.40;99.90
24420;DHT22;12599;52.426;13.330;2022-10-16T00:55:08;15.40;99.90
24420;DHT22;12599;52.426;13.330;2022-10-16T00:57:35;15.40;99.90
24420;DHT22;12599;52.426;13.330;2022-10-16T01:00:02;15.50;99.90
24420;DHT22;12599;52.426;13.330;2022-10-16T01:02:28;15.50;99.90
24420;DHT22;12599;52.426;13.330;2022-10-16T01:04:54;15.50;99.90
24420;DHT22;12599;52.426;13.330;2022-10-16T01:12:47;15.60;99.90
24420;DHT22;12599;52.426;13.330;2022-10-16T01:15:27;15.60;99.90
24420;DHT22;12599;52.426;13.330;2022-10-16T01:18:16;15.50;99.90
24420;DHT22;12599;52.426;13.330;2022-10-16T01:20:49;15.50;99.90
24420;DHT22;12599;52.426;13.330;2022-10-16T01:23:27;15.60;99.90
24420;DHT22;12599;52.426;13.330;2022-10-16T01:28:46;15.60;99.90
24420;DHT22;12599;52.426;13.330;2022-10-16T01:31:18;15.50;99.90
24420;DHT22;12599;52.426;13.330;2022-10-16T01:34:02;15.40;99.90
24420;DHT22;12599;52.426;13.330;2022-10-16T01:36:41;15.40;99.90
24420;DHT22;12599;52.426;13.330;2022-10-16T01:39:09;15.40;99.90
24420;DHT22;12599;52.426;13.330;2022-10-16T01:41:51;15.40;99.90
24420;DHT22;12599;52.426;13.330;2022-10-16T01:44:22;15.30;99.90
24420;DHT22;12599;52.426;13.330;2022-10-16T01:46:52;15.30;99.90
24420;DHT22;12599;52.426;13.330;2022-10-16T01:49:19;15.20;99.90
24420;DHT22;12599;52.426;13.330;2022-10-16T01:51:48;15.20;99.90
24420;DHT22;12599;52.426;13.330;2022-10-16T01:54:17;16.10;99.90
24420;DHT22;12599;52.426;13.330;2022-10-16T01:56:46;15.20;99.90
24420;DHT22;12599;52.426;13.330;2022-10-16T01:59:18;15.10;99.90
24420;DHT22;12599;52.426;13.330;2022-10-16T02:01:48;15.10;99.90
24420;DHT22;12599;52.426;13.330;2022-10-16T02:04:28;15.10;99.90
24420;DHT22;12599;52.426;13.330;2022-10-16T02:06:55;15.10;99.90
24420;DHT22;12599;52.426;13.330;2022-10-16T02:09:21;15.10;99.90
24420;DHT22;12599;52.426;13.330;2022-10-16T02:11:46;15.10;99.90
24420;DHT22;12599;52.426;13.330;2022-10-16T02:14:14;15.20;99.90
24420;DHT22;12599;52.426;13.330;2022-10-16T02:16:42;15.20;99.90
24420;DHT22;12599;52.426;13.330;2022-10-16T02:19:12;15.20;99.90
24420;DHT22;12599;52.426;13.330;2022-10-16T02:21:53;15.30;99.90
24420;DHT22;12599;52.426;13.330;2022-10-16T02:24:29;15.30;99.90
24420;DHT22;12599;52.426;13.330;2022-10-16T02:27:00;15.40;99.90
24420;DHT22;12599;52.426;13.330;2022-10-16T02:29:27;15.40;99.90
24420;DHT22;12599;52.426;13.330;2022-10-16T02:32:02;15.30;99.90
24420;DHT22;12599;52.426;13.330;2022-10-16T02:34:32;15.40;99.90
24420;DHT22;12599;52.426;13.330;2022-10-16T02:36:59;15.50;99.90
24420;DHT22;12599;52.426;13.330;2022-10-16T02:39:27;15.40;99.90
24420;DHT22;12599;52.426;13.330;2022-10-16T02:41:54;15.40;99.90
24420;DHT22;12599;52.426;13.330;2022-10-16T02:44:20;15.40;99.90
24420;DHT22;12599;52.426;13.330;2022-10-16T02:46:45;15.50;99.90
24420;DHT22;12599;52.426;13.330;2022-10-16T02:49:11;15.40;99.90
24420;DHT22;12599;52.426;13.330;2022-10-16T02:51:36;15.40;99.90
24420;DHT22;12599;52.426;13.330;2022-10-16T02:54:02;15.40;99.90
24420;DHT22;12599;52.426;13.330;2022-10-16T02:56:28;15.50;99.90
24420;DHT22;12599;52.426;13.330;2022-10-16T02:58:55;15.40;99.90
24420;DHT22;12599;52.426;13.330;2022-10-16T03:01:21;15.30;99.90
24420;DHT22;12599;52.426;13.330;2022-10-16T03:03:47;15.30;99.90
24420;DHT22;12599;52.426;13.330;2022-10-16T03:06:12;15.20;99.90
24420;DHT22;12599;52.426;13.330;2022-10-16T03:08:38;15.20;99.90
24420;DHT22;12599;52.426;13.330;2022-10-16T03:11:04;15.10;99.90
24420;DHT22;12599;52.426;13.330;2022-10-16T03:13:29;15.10;99.90
24420;DHT22;12599;52.426;13.330;2022-10-16T03:15:55;15.00;99.90
24420;DHT22;12599;52.426;13.330;2022-10-16T03:18:20;15.00;99.90
24420;DHT22;12599;52.426;13.330;2022-10-16T03:20:46;14.90;99.90
24420;DHT22;12599;52.426;13.330;2022-10-16T03:23:12;15.00;99.90
24420;DHT22;12599;52.426;13.330;2022-10-16T03:25:38;14.90;99.90
24420;DHT22;12599;52.426;13.330;2022-10-16T03:28:03;14.80;99.90
24420;DHT22;12599;52.426;13.330;2022-10-16T03:30:29;14.80;99.90
24420;DHT22;12599;52.426;13.330;2022-10-16T03:32:54;14.80;99.90
24420;DHT22;12599;52.426;13.330;2022-10-16T03:35:21;14.80;99.90
24420;DHT22;12599;52.426;13.330;2022-10-16T03:37:47;14.70;99.90
24420;DHT22;12599;52.426;13.330;2022-10-16T03:40:13;14.70;99.90
24420;DHT22;12599;52.426;13.330;2022-10-16T03:42:39;14.70;99.90
24420;DHT22;12599;52.426;13.330;2022-10-16T03:45:05;14.60;99.90
24420;DHT22;12599;52.426;13.330;2022-10-16T03:47:34;14.60;99.90
24420;DHT22;12599;52.426;13.330;2022-10-16T03:49:59;14.60;99.90
24420;DHT22;12599;52.426;13.330;2022-10-16T03:52:27;14.50;99.90
24420;DHT22;12599;52.426;13.330;2022-10-16T03:54:53;14.50;99.90
24420;DHT22;12599;52.426;13.330;2022-10-16T03:57:19;14.50;99.90
24420;DHT22;12599;52.426;13.330;2022-10-16T03:59:46;14.40;99.90
24420;DHT22;12599;52.426;13.330;2022-10-16T04:02:12;14.50;99.90
24420;DHT22;12599;52.426;13.330;2022-10-16T04:04:37;14.50;99.90
24420;DHT22;12599;52.426;13.330;2022-10-16T04:07:03;14.40;99.90
24420;DHT22;12599;52.426;13.330;2022-10-16T04:09:29;14.90;99.90
24420;DHT22;12599;52.426;13.330;2022-10-16T04:11:54;14.50;99.90
24420;DHT22;12599;52.426;13.330;2022-10-16T04:14:20;14.50;99.90
24420;DHT22;12599;52.426;13.330;2022-10-16T04:16:45;14.40;99.90
24420;DHT22;12599;52.426;13.330;2022-10-16T04:19:11;14.40;99.90
24420;DHT22;12599;52.426;13.330;2022-10-16T04:21:37;14.40;99.90
24420;DHT22;12599;52.426;13.330;2022-10-16T04:24:03;14.50;99.90
24420;DHT22;12599;52.426;13.330;2022-10-16T04:26:29;14.50;99.90
24420;DHT22;12599;52.426;13.330;2022-10-16T04:28:54;14.40;99.90
24420;DHT22;12599;52.426;13.330;2022-10-16T04:31:20;14.40;99.90
24420;DHT22;12599;52.426;13.330;2022-10-16T04:33:46;14.40;99.90
24420;DHT22;12599;52.426;13.330;2022-10-16T04:36:12;14.40;99.90
24420;DHT22;12599;52.426;13.330;2022-10-16T04:38:37;14.40;99.90
24420;DHT22;12599;52.426;13.330;2022-10-16T04:41:05;14.40;99.90
24420;DHT22;12599;52.426;13.330;2022-10-16T04:43:31;14.30;99.90
24420;DHT22;12599;52.426;13.330;2022-10-16T04:45:56;14.30;99.90
24420;DHT22;12599;52.426;13.330;2022-10-16T04:48:22;14.30;99.90
24420;DHT22;12599;52.426;13.330;2022-10-16T04:50:48;14.20;99.90
24420;DHT22;12599;52.426;13.330;2022-10-16T04:53:13;14.20;99.90
24420;DHT22;12599;52.426;13.330;2022-10-16T04:55:40;14.20;99.90
24420;DHT22;12599;52.426;13.330;2022-10-16T04:58:06;14.10;99.90
24420;DHT22;12599;52.426;13.330;2022-10-16T05:00:32;14.10;99.90
24420;DHT22;12599;52.426;13.330;2022-10-16T05:02:58;14.10;99.90
24420;DHT22;12599;52.426;13.330;2022-10-16T05:05:26;14.20;99.90
24420;DHT22;12599;52.426;13.330;2022-10-16T05:07:52;14.30;99.90
24420;DHT22;12599;52.426;13.330;2022-10-16T05:10:17;14.10;99.90
24420;DHT22;12599;52.426;13.330;2022-10-16T05:12:43;14.10;99.90
24420;DHT22;12599;52.426;13.330;2022-10-16T05:15:09;14.10;99.90
24420;DHT22;12599;52.426;13.330;2022-10-16T05:17:34;14.00;99.90
24420;DHT22;12599;52.426;13.330;2022-10-16T05:20:00;14.00;99.90
24420;DHT22;12599;52.426;13.330;2022-10-16T05:22:25;14.00;99.90
24420;DHT22;12599;52.426;13.330;2022-10-16T05:24:51;13.90;99.90
24420;DHT22;12599;52.426;13.330;2022-10-16T05:27:16;13.90;99.90
24420;DHT22;12599;52.426;13.330;2022-10-16T05:29:46;13.90;99.90
24420;DHT22;12599;52.426;13.330;2022-10-16T05:32:12;14.70;99.90
24420;DHT22;12599;52.426;13.330;2022-10-16T05:34:38;14.00;99.90
24420;DHT22;12599;52.426;13.330;2022-10-16T05:37:04;14.00;99.90
24420;DHT22;12599;52.426;13.330;2022-10-16T05:39:29;14.00;99.90
24420;DHT22;12599;52.426;13.330;2022-10-16T05:41:55;14.00;99.90
24420;DHT22;12599;52.426;13.330;2022-10-16T05:44:20;14.00;99.90
24420;DHT22;12599;52.426;13.330;2022-10-16T05:46:46;14.00;99.90
24420;DHT22;12599;52.426;13.330;2022-10-16T05:49:12;13.90;99.90
24420;DHT22;12599;52.426;13.330;2022-10-16T05:51:45;13.90;99.90
24420;DHT22;12599;52.426;13.330;2022-10-16T05:54:11;13.90;99.90
24420;DHT22;12599;52.426;13.330;2022-10-16T05:56:36;14.00;99.90
24420;DHT22;12599;52.426;13.330;2022-10-16T05:59:03;13.90;99.90
24420;DHT22;12599;52.426;13.330;2022-10-16T06:01:29;14.00;99.90
24420;DHT22;12599;52.426;13.330;2022-10-16T06:03:56;14.10;99.90
24420;DHT22;12599;52.426;13.330;2022-10-16T06:06:24;14.00;99.90
24420;DHT22;12599;52.426;13.330;2022-10-16T06:08:52;14.10;99.90
24420;DHT22;12599;52.426;13.330;2022-10-16T06:11:21;14.10;99.90
24420;DHT22;12599;52.426;13.330;2022-10-16T06:13:51;14.10;99.90
24420;DHT22;12599;52.426;13.330;2022-10-16T06:16:17;14.20;99.90
24420;DHT22;12599;52.426;13.330;2022-10-16T06:18:43;14.20;99.90
24420;DHT22;12599;52.426;13.330;2022-10-16T06:21:16;14.20;99.90
24420;DHT22;12599;52.426;13.330;2022-10-16T06:23:41;14.20;99.90
24420;DHT22;12599;52.426;13.330;2022-10-16T06:26:09;14.20;99.90
24420;DHT22;12599;52.426;13.330;2022-10-16T06:28:35;14.30;99.90
24420;DHT22;12599;52.426;13.330;2022-10-16T06:31:02;14.30;99.90
24420;DHT22;12599;52.426;13.330;2022-10-16T06:33:28;14.40;99.90
24420;DHT22;12599;52.426;13.330;2022-10-16T06:35:53;14.30;99.90
24420;DHT22;12599;52.426;13.330;2022-10-16T06:38:19;14.40;99.90
24420;DHT22;12599;52.426;13.330;2022-10-16T06:40:44;14.40;99.90
24420;DHT22;12599;52.426;13.330;2022-10-16T06:43:10;14.50;99.90
24420;DHT22;12599;52.426;13.330;2022-10-16T06:45:35;14.50;99.90
24420;DHT22;12599;52.426;13.330;2022-10-16T06:48:01;15.20;99.90
24420;DHT22;12599;52.426;13.330;2022-10-16T06:50:26;14.60;99.90
24420;DHT22;12599;52.426;13.330;2022-10-16T06:52:55;14.60;99.90
24420;DHT22;12599;52.426;13.330;2022-10-16T06:55:20;14.70;99.90
24420;DHT22;12599;52.426;13.330;2022-10-16T06:57:47;15.20;99.90
24420;DHT22;12599;52.426;13.330;2022-10-16T07:00:14;14.70;99.90
24420;DHT22;12599;52.426;13.330;2022-10-16T07:02:39;14.80;99.90
24420;DHT22;12599;52.426;13.330;2022-10-16T07:05:05;14.80;99.90
24420;DHT22;12599;52.426;13.330;2022-10-16T07:07:31;14.90;99.90
24420;DHT22;12599;52.426;13.330;2022-10-16T07:09:59;14.90;99.90
24420;DHT22;12599;52.426;13.330;2022-10-16T07:12:25;15.10;99.90
24420;DHT22;12599;52.426;13.330;2022-10-16T07:14:50;15.30;99.90
24420;DHT22;12599;52.426;13.330;2022-10-16T07:17:17;15.40;99.90
24420;DHT22;12599;52.426;13.330;2022-10-16T07:19:44;15.40;99.90
24420;DHT22;12599;52.426;13.330;2022-10-16T07:22:10;15.50;99.90
24420;DHT22;12599;52.426;13.330;2022-10-16T07:24:35;15.70;99.90
24420;DHT22;12599;52.426;13.330;2022-10-16T07:27:04;15.80;99.90
24420;DHT22;12599;52.426;13.330;2022-10-16T07:29:29;15.90;99.90
24420;DHT22;12599;52.426;13.330;2022-10-16T07:31:55;16.10;99.90
24420;DHT22;12599;52.426;13.330;2022-10-16T07:34:21;16.20;99.90
24420;DHT22;12599;52.426;13.330;2022-10-16T07:36:50;16.30;99.90
24420;DHT22;12599;52.426;13.330;2022-10-16T07:39:16;16.40;99.90
24420;DHT22;12599;52.426;13.330;2022-10-16T07:41:42;16.50;99.90
24420;DHT22;12599;52.426;13.330;2022-10-16T07:44:08;16.50;99.90
24420;DHT22;12599;52.426;13.330;2022-10-16T07:46:34;16.50;99.90
24420;DHT22;12599;52.426;13.330;2022-10-16T07:49:01;16.50;99.90
24420;DHT22;12599;52.426;13.330;2022-10-16T07:51:27;16.50;99.90
24420;DHT22;12599;52.426;13.330;2022-10-16T07:53:53;16.50;99.90
24420;DHT22;12599;52.426;13.330;2022-10-16T07:56:20;16.50;99.90
24420;DHT22;12599;52.426;13.330;2022-10-16T07:58:46;16.60;99.90
24420;DHT22;12599;52.426;13.330;2022-10-16T08:01:14;16.60;99.90
24420;DHT22;12599;52.426;13.330;2022-10-16T08:03:51;16.50;99.90
24420;DHT22;12599;52.426;13.330;2022-10-16T08:06:18;16.50;99.90
24420;DHT22;12599;52.426;13.330;2022-10-16T08:08:44;16.50;99.90
24420;DHT22;12599;52.426;13.330;2022-10-16T08:11:09;16.50;99.90
24420;DHT22;12599;52.426;13.330;2022-10-16T08:13:35;16.50;99.90
24420;DHT22;12599;52.426;13.330;2022-10-16T08:16:01;16.60;99.90
24420;DHT22;12599;52.426;13.330;2022-10-16T08:18:29;16.70;99.90
24420;DHT22;12599;52.426;13.330;2022-10-16T08:20:59;16.60;99.90
24420;DHT22;12599;52.426;13.330;2022-10-16T08:23:26;16.70;99.90
24420;DHT22;12599;52.426;13.330;2022-10-16T08:25:55;16.80;99.90
24420;DHT22;12599;52.426;13.330;2022-10-16T08:28:22;16.80;99.90
24420;DHT22;12599;52.426;13.330;2022-10-16T08:30:49;17.00;99.90
24420;DHT22;12599;52.426;13.330;2022-10-16T08:33:15;17.20;99.90
24420;DHT22;12599;52.426;13.330;2022-10-16T08:35:40;17.20;99.90
24420;DHT22;12599;52.426;13.330;2022-10-16T08:38:06;17.20;99.90
24420;DHT22;12599;52.426;13.330;2022-10-16T08:40:34;17.30;99.90
24420;DHT22;12599;52.426;13.330;2022-10-16T08:48:49;17.40;99.90
24420;DHT22;12599;52.426;13.330;2022-10-16T08:51:36;17.30;99.90
24420;DHT22;12599;52.426;13.330;2022-10-16T08:54:21;17.30;99.90
24420;DHT22;12599;52.426;13.330;2022-10-16T08:56:48;17.30;99.90
24420;DHT22;12599;52.426;13.330;2022-10-16T08:59:14;17.30;99.90
24420;DHT22;12599;52.426;13.330;2022-10-16T09:01:44;17.30;99.90
24420;DHT22;12599;52.426;13.330;2022-10-16T09:04:53;17.20;99.90
24420;DHT22;12599;52.426;13.330;2022-10-16T09:10:20;17.30;99.90
24420;DHT22;12599;52.426;13.330;2022-10-16T09:13:14;17.50;99.90
24420;DHT22;12599;52.426;13.330;2022-10-16T09:15:58;17.70;99.90
24420;DHT22;12599;52.426;13.330;2022-10-16T09:18:31;17.80;99.90
24420;DHT22;12599;52.426;13.330;2022-10-16T09:23:36;17.90;99.90
24420;DHT22;12599;52.426;13.330;2022-10-16T09:26:03;17.90;99.90
24420;DHT22;12599;52.426;13.330;2022-10-16T09:28:29;17.90;99.90
24420;DHT22;12599;52.426;13.330;2022-10-16T09:30:54;17.90;99.90
24420;DHT22;12599;52.426;13.330;2022-10-16T09:33:33;17.90;99.90
24420;DHT22;12599;52.426;13.330;2022-10-16T09:36:03;17.80;99.90
24420;DHT22;12599;52.426;13.330;2022-10-16T09:38:32;17.90;99.90
24420;DHT22;12599;52.426;13.330;2022-10-16T09:41:00;17.90;99.90
24420;DHT22;12599;52.426;13.330;2022-10-16T09:43:27;17.80;99.90
24420;DHT22;12599;52.426;13.330;2022-10-16T09:46:03;17.80;99.90
24420;DHT22;12599;52.426;13.330;2022-10-16T09:48:48;17.90;99.90
24420;DHT22;12599;52.426;13.330;2022-10-16T09:51:28;18.00;99.90
24420;DHT22;12599;52.426;13.330;2022-10-16T09:56:36;17.90;99.90
24420;DHT22;12599;52.426;13.330;2022-10-16T09:59:21;17.90;99.90
24420;DHT22;12599;52.426;13.330;2022-10-16T10:01:53;17.90;99.90
24420;DHT22;12599;52.426;13.330;2022-10-16T10:04:22;17.90;99.90
24420;DHT22;12599;52.426;13.330;2022-10-16T10:06:53;18.00;99.90
24420;DHT22;12599;52.426;13.330;2022-10-16T10:09:37;18.10;99.90
24420;DHT22;12599;52.426;13.330;2022-10-16T10:12:04;18.20;99.90
24420;DHT22;12599;52.426;13.330;2022-10-16T10:14:39;18.40;99.90
24420;DHT22;12599;52.426;13.330;2022-10-16T10:22:17;18.70;99.90
24420;DHT22;12599;52.426;13.330;2022-10-16T10:25:33;18.70;99.90
24420;DHT22;12599;52.426;13.330;2022-10-16T10:27:49;18.70;99.90
24420;DHT22;12599;52.426;13.330;2022-10-16T10:33:18;18.70;99.90
24420;DHT22;12599;52.426;13.330;2022-10-16T10:36:11;18.70;99.90
24420;DHT22;12599;52.426;13.330;2022-10-16T10:38:58;18.90;99.90
24420;DHT22;12599;52.426;13.330;2022-10-16T10:41:47;18.80;99.90
24420;DHT22;12599;52.426;13.330;2022-10-16T10:47:41;18.80;99.90
24420;DHT22;12599;52.426;13.330;2022-10-16T10:50:45;18.80;99.90
24420;DHT22;12599;52.426;13.330;2022-10-16T10:53:45;18.90;99.90
24420;DHT22;12599;52.426;13.330;2022-10-16T10:59:07;19.10;99.90
24420;DHT22;12599;52.426;13.330;2022-10-16T11:07:24;19.20;99.90
24420;DHT22;12599;52.426;13.330;2022-10-16T11:09:58;19.20;99.90
24420;DHT22;12599;52.426;13.330;2022-10-16T11:12:31;19.20;99.90
24420;DHT22;12599;52.426;13.330;2022-10-16T11:17:42;19.50;99.90
24420;DHT22;12599;52.426;13.330;2022-10-16T11:20:25;19.50;99.90
24420;DHT22;12599;52.426;13.330;2022-10-16T11:22:56;19.60;99.90
24420;DHT22;12599;52.426;13.330;2022-10-16T11:25:27;19.70;99.90
24420;DHT22;12599;52.426;13.330;2022-10-16T11:28:14;19.80;99.90
24420;DHT22;12599;52.426;13.330;2022-10-16T11:30:57;19.60;99.90
24420;DHT22;12599;52.426;13.330;2022-10-16T11:36:16;19.50;99.90
24420;DHT22;12599;52.426;13.330;2022-10-16T11:39:02;19.50;99.90
24420;DHT22;12599;52.426;13.330;2022-10-16T11:41:37;19.40;99.90
24420;DHT22;12599;52.426;13.330;2022-10-16T11:44:32;19.40;99.90
24420;DHT22;12599;52.426;13.330;2022-10-16T11:49:47;19.30;99.90
24420;DHT22;12599;52.426;13.330;2022-10-16T11:52:23;19.30;99.90
24420;DHT22;12599;52.426;13.330;2022-10-16T11:57:31;19.30;99.90
24420;DHT22;12599;52.426;13.330;2022-10-16T12:03:04;19.30;99.90
24420;DHT22;12599;52.426;13.330;2022-10-16T12:05:58;19.30;99.90
24420;DHT22;12599;52.426;13.330;2022-10-16T12:08:27;19.40;99.90
24420;DHT22;12599;52.426;13.330;2022-10-16T12:10:53;19.40;99.90
24420;DHT22;12599;52.426;13.330;2022-10-16T12:16:06;19.40;99.90
24420;DHT22;12599;52.426;13.330;2022-10-16T12:18:32;19.40;99.90
24420;DHT22;12599;52.426;13.330;2022-10-16T12:20:59;19.30;99.90
24420;DHT22;12599;52.426;13.330;2022-10-16T12:23:30;19.40;99.90
24420;DHT22;12599;52.426;13.330;2022-10-16T12:25:58;19.40;99.90
24420;DHT22;12599;52.426;13.330;2022-10-16T12:28:28;19.50;99.90
24420;DHT22;12599;52.426;13.330;2022-10-16T12:31:06;19.60;99.90
24420;DHT22;12599;52.426;13.330;2022-10-16T12:33:57;19.60;99.90
24420;DHT22;12599;52.426;13.330;2022-10-16T12:36:31;19.60;99.90
24420;DHT22;12599;52.426;13.330;2022-10-16T12:38:58;19.50;99.90
24420;DHT22;12599;52.426;13.330;2022-10-16T12:41:35;19.50;99.90
24420;DHT22;12599;52.426;13.330;2022-10-16T12:44:01;19.40;99.90
24420;DHT22;12599;52.426;13.330;2022-10-16T12:51:58;19.30;99.90
24420;DHT22;12599;52.426;13.330;2022-10-16T12:54:38;19.30;99.90
24420;DHT22;12599;52.426;13.330;2022-10-16T13:11:01;19.60;99.90
24420;DHT22;12599;52.426;13.330;2022-10-16T13:16:30;19.80;99.90
24420;DHT22;12599;52.426;13.330;2022-10-16T13:19:19;19.80;99.90
24420;DHT22;12599;52.426;13.330;2022-10-16T13:22:25;19.80;99.90
24420;DHT22;12599;52.426;13.330;2022-10-16T13:28:03;21.30;99.90
24420;DHT22;12599;52.426;13.330;2022-10-16T13:30:31;19.70;99.90
24420;DHT22;12599;52.426;13.330;2022-10-16T13:33:10;19.80;99.90
24420;DHT22;12599;52.426;13.330;2022-10-16T13:35:53;19.90;99.90
24420;DHT22;12599;52.426;13.330;2022-10-16T13:38:21;20.00;99.90
24420;DHT22;12599;52.426;13.330;2022-10-16T13:45:57;20.00;99.90
24420;DHT22;12599;52.426;13.330;2022-10-16T13:48:23;20.00;99.90
24420;DHT22;12599;52.426;13.330;2022-10-16T13:51:13;20.50;99.90
24420;DHT22;12599;52.426;13.330;2022-10-16T13:53:39;20.00;99.90
24420;DHT22;12599;52.426;13.330;2022-10-16T13:56:10;20.00;99.90
24420;DHT22;12599;52.426;13.330;2022-10-16T13:58:36;20.00;99.90
24420;DHT22;12599;52.426;13.330;2022-10-16T14:01:25;20.00;99.90
24420;DHT22;12599;52.426;13.330;2022-10-16T14:03:49;20.00;99.90
24420;DHT22;12599;52.426;13.330;2022-10-16T14:06:18;19.90;99.90
24420;DHT22;12599;52.426;13.330;2022-10-16T14:09:00;19.90;99.90
24420;DHT22;12599;52.426;13.330;2022-10-16T14:11:29;20.00;99.90
24420;DHT22;12599;52.426;13.330;2022-10-16T14:13:55;19.90;99.90
24420;DHT22;12599;52.426;13.330;2022-10-16T14:16:23;19.90;99.90
24420;DHT22;12599;52.426;13.330;2022-10-16T14:19:02;19.90;99.90
24420;DHT22;12599;52.426;13.330;2022-10-16T14:21:30;19.80;99.90
24420;DHT22;12599;52.426;13.330;2022-10-16T14:23:57;19.90;99.90
24420;DHT22;12599;52.426;13.330;2022-10-16T14:26:26;19.80;99.90
24420;DHT22;12599;52.426;13.330;2022-10-16T14:29:11;19.90;99.90
24420;DHT22;12599;52.426;13.330;2022-10-16T14:31:37;19.90;99.90
24420;DHT22;12599;52.426;13.330;2022-10-16T14:34:05;19.90;99.90
24420;DHT22;12599;52.426;13.330;2022-10-16T14:36:50;19.80;99.90
24420;DHT22;12599;52.426;13.330;2022-10-16T14:39:20;19.80;99.90
24420;DHT22;12599;52.426;13.330;2022-10-16T14:41:51;19.80;99.90
24420;DHT22;12599;52.426;13.330;2022-10-16T14:44:26;19.80;99.90
24420;DHT22;12599;52.426;13.330;2022-10-16T14:46:52;19.70;99.90
24420;DHT22;12599;52.426;13.330;2022-10-16T14:49:19;19.70;99.90
24420;DHT22;12599;52.426;13.330;2022-10-16T14:51:46;19.70;99.90
24420;DHT22;12599;52.426;13.330;2022-10-16T14:54:13;19.70;99.90
24420;DHT22;12599;52.426;13.330;2022-10-16T14:56:54;20.60;99.90
24420;DHT22;12599;52.426;13.330;2022-10-16T15:01:57;19.50;99.90
24420;DHT22;12599;52.426;13.330;2022-10-16T15:04:23;19.50;99.90
24420;DHT22;12599;52.426;13.330;2022-10-16T15:06:49;19.50;99.90
24420;DHT22;12599;52.426;13.330;2022-10-16T15:09:15;19.50;99.90
24420;DHT22;12599;52.426;13.330;2022-10-16T15:11:42;19.40;99.90
24420;DHT22;12599;52.426;13.330;2022-10-16T15:14:11;19.40;99.90
24420;DHT22;12599;52.426;13.330;2022-10-16T15:16:38;19.30;99.90
24420;DHT22;12599;52.426;13.330;2022-10-16T15:19:04;19.20;99.90
24420;DHT22;12599;52.426;13.330;2022-10-16T15:21:32;19.20;99.90
24420;DHT22;12599;52.426;13.330;2022-10-16T15:24:00;19.10;99.90
24420;DHT22;12599;52.426;13.330;2022-10-16T15:26:28;19.00;99.90
24420;DHT22;12599;52.426;13.330;2022-10-16T15:28:54;18.90;99.90
24420;DHT22;12599;52.426;13.330;2022-10-16T15:31:20;18.80;99.90
24420;DHT22;12599;52.426;13.330;2022-10-16T15:33:49;19.70;99.90
24420;DHT22;12599;52.426;13.330;2022-10-16T15:36:28;18.60;99.90
24420;DHT22;12599;52.426;13.330;2022-10-16T15:38:55;18.40;99.90
24420;DHT22;12599;52.426;13.330;2022-10-16T15:41:21;18.40;99.90
24420;DHT22;12599;52.426;13.330;2022-10-16T15:43:51;19.40;99.90
24420;DHT22;12599;52.426;13.330;2022-10-16T15:46:22;18.00;99.90
24420;DHT22;12599;52.426;13.330;2022-10-16T15:48:49;17.90;99.90
24420;DHT22;12599;52.426;13.330;2022-10-16T15:51:15;19.20;99.90
24420;DHT22;12599;52.426;13.330;2022-10-16T15:53:42;17.70;99.90
24420;DHT22;12599;52.426;13.330;2022-10-16T15:56:12;17.60;99.90
24420;DHT22;12599;52.426;13.330;2022-10-16T15:58:43;18.00;99.90
24420;DHT22;12599;52.426;13.330;2022-10-16T16:01:09;17.40;99.90
24420;DHT22;12599;52.426;13.330;2022-10-16T16:03:36;17.30;99.90
24420;DHT22;12599;52.426;13.330;2022-10-16T16:06:07;17.20;99.90
24420;DHT22;12599;52.426;13.330;2022-10-16T16:08:33;17.10;99.90
24420;DHT22;12599;52.426;13.330;2022-10-16T16:11:06;17.00;99.90
24420;DHT22;12599;52.426;13.330;2022-10-16T16:13:32;17.00;99.90
24420;DHT22;12599;52.426;13.330;2022-10-16T16:15:57;16.80;99.90
24420;DHT22;12599;52.426;13.330;2022-10-16T16:18:23;16.60;99.90
24420;DHT22;12599;52.426;13.330;2022-10-16T16:20:50;16.60;99.90
24420;DHT22;12599;52.426;13.330;2022-10-16T16:23:16;16.40;99.90
24420;DHT22;12599;52.426;13.330;2022-10-16T16:25:41;16.30;99.90
24420;DHT22;12599;52.426;13.330;2022-10-16T16:28:08;16.20;99.90
24420;DHT22;12599;52.426;13.330;2022-10-16T16:30:39;16.10;99.90
24420;DHT22;12599;52.426;13.330;2022-10-16T16:33:04;16.00;99.90
24420;DHT22;12599;52.426;13.330;2022-10-16T16:35:30;18.30;99.90
24420;DHT22;12599;52.426;13.330;2022-10-16T16:37:55;15.80;99.90
24420;DHT22;12599;52.426;13.330;2022-10-16T16:40:21;15.70;99.90
24420;DHT22;12599;52.426;13.330;2022-10-16T16:42:48;15.60;99.90
24420;DHT22;12599;52.426;13.330;2022-10-16T16:45:14;15.60;99.90
24420;DHT22;12599;52.426;13.330;2022-10-16T16:47:40;15.40;99.90
24420;DHT22;12599;52.426;13.330;2022-10-16T16:50:06;15.40;99.90
24420;DHT22;12599;52.426;13.330;2022-10-16T16:52:32;15.30;99.90
24420;DHT22;12599;52.426;13.330;2022-10-16T16:54:58;15.30;99.90
24420;DHT22;12599;52.426;13.330;2022-10-16T16:57:24;15.20;99.90
24420;DHT22;12599;52.426;13.330;2022-10-16T16:59:50;15.20;99.90
24420;DHT22;12599;52.426;13.330;2022-10-16T17:02:16;15.10;99.90